createdAt,value
2023-12-10T00:04:06.647Z,100040.65
2023-12-10T00:09:09.946Z,100024.85
2023-12-10T00:14:12.892Z,100021.88
2023-12-10T00:19:15.997Z,100028.70
2023-12-10T00:24:19.124Z,100024.85
2023-12-10T00:29:22.130Z,100030.95
2023-12-10T00:34:25.272Z,100013.31
2023-12-10T00:39:30.026Z,100004.61
2023-12-10T00:44:33.137Z,100003.25
2023-12-10T00:49:36.177Z,100012.94
2023-12-10T00:54:40.579Z,100013.70
2023-12-10T00:59:43.485Z,100018.80
2023-12-10T01:04:46.707Z,100015.21
2023-12-10T01:09:50.208Z,100021.60
2023-12-10T01:14:53.580Z,100025.43
2023-12-10T01:19:56.537Z,100034.63
2023-12-10T01:24:59.646Z,100029.48
2023-12-10T01:30:02.912Z,100026.92
2023-12-10T01:35:06.333Z,100034.06
2023-12-10T01:40:10.148Z,100019.67
2023-12-10T01:45:13.327Z,100012.98
2023-12-10T01:50:16.893Z,100020.81
2023-12-10T01:55:19.982Z,100022.48
2023-12-10T02:00:23.180Z,100023.44
2023-12-10T02:05:26.159Z,100019.27
2023-12-10T02:10:30.787Z,100021.11
2023-12-10T02:15:33.808Z,100031.06
2023-12-10T02:20:36.833Z,100027.77
2023-12-10T02:25:40.364Z,100026.09
2023-12-10T02:30:43.274Z,100022.79
2023-12-10T02:35:46.273Z,100016.58
2023-12-10T02:40:50.382Z,100016.25
2023-12-10T02:45:53.419Z,100017.92
2023-12-10T02:50:56.844Z,100005.86
2023-12-10T02:55:59.954Z,99993.11
2023-12-10T03:01:03.193Z,99986.18
2023-12-10T03:06:08.622Z,99978.42
2023-12-10T03:11:11.848Z,99975.80
2023-12-10T03:16:14.988Z,99972.88
2023-12-10T03:21:18.199Z,99973.37
2023-12-10T03:26:23.367Z,99968.30
2023-12-10T03:31:26.361Z,99954.99
2023-12-10T03:36:29.507Z,99957.27
2023-12-10T03:41:32.508Z,99958.34
2023-12-10T03:46:35.394Z,99947.14
2023-12-10T03:51:38.335Z,99932.75
2023-12-10T03:56:41.423Z,99922.52
2023-12-10T04:01:44.799Z,99907.06
2023-12-10T04:06:48.788Z,99908.90
2023-12-10T04:11:51.864Z,99914.36
2023-12-10T04:16:55.445Z,99923.98
2023-12-10T04:21:58.444Z,99933.87
2023-12-10T04:27:01.610Z,99942.95
2023-12-10T04:32:05.862Z,99945.70
2023-12-10T04:37:08.777Z,99951.98
2023-12-10T04:42:12.190Z,99954.47
2023-12-10T04:47:15.252Z,99958.03
2023-12-10T04:52:19.335Z,99951.91
2023-12-10T04:57:22.902Z,99953.36
2023-12-10T05:02:26.535Z,99947.89
2023-12-10T05:07:29.613Z,99954.83
2023-12-10T05:12:32.858Z,99947.61
2023-12-10T05:17:36.072Z,99937.27
2023-12-10T05:22:39.077Z,99950.91
2023-12-10T05:27:42.244Z,99959.75
2023-12-10T05:32:45.235Z,99966.28
2023-12-10T05:37:48.486Z,99966.51
2023-12-10T05:42:51.525Z,99964.10
2023-12-10T05:47:54.742Z,99963.25
2023-12-10T05:52:58.237Z,99969.70
2023-12-10T05:58:01.388Z,99984.55
2023-12-10T06:03:04.478Z,99986.89
2023-12-10T06:08:07.580Z,99993.61
2023-12-10T06:13:11.431Z,100000.03
2023-12-10T06:18:14.753Z,100009.77
2023-12-10T06:23:17.930Z,100021.10
2023-12-10T06:28:20.836Z,100026.38
2023-12-10T06:33:26.327Z,100035.17
2023-12-10T06:38:29.534Z,100037.80
2023-12-10T06:43:32.575Z,100041.68
2023-12-10T06:48:35.946Z,100038.88
2023-12-10T06:53:41.264Z,100030.11
2023-12-10T06:58:44.278Z,100018.88
2023-12-10T07:03:47.276Z,100016.45
2023-12-10T07:08:50.245Z,100032.27
2023-12-10T07:13:54.568Z,100041.16
2023-12-10T07:18:57.684Z,100036.56
2023-12-10T07:24:00.746Z,100041.77
2023-12-10T07:29:03.683Z,100048.27
2023-12-10T07:34:06.939Z,100043.86
2023-12-10T07:39:11.438Z,100047.40
2023-12-10T07:44:14.614Z,100047.27
2023-12-10T07:49:18.585Z,100055.78
2023-12-10T07:54:21.952Z,100066.02
2023-12-10T07:59:26.373Z,100058.67
2023-12-10T08:04:29.587Z,100067.09
2023-12-10T08:09:33.124Z,100070.91
2023-12-10T08:14:36.687Z,100076.88
2023-12-10T08:19:41.859Z,100087.90
2023-12-10T08:24:44.989Z,100097.66
2023-12-10T08:29:48.024Z,100097.55
2023-12-10T08:34:51.267Z,100100.09
2023-12-10T08:39:55.444Z,100103.16
2023-12-10T08:44:59.548Z,100090.60
2023-12-10T08:50:04.598Z,100073.38
2023-12-10T08:55:08.228Z,100077.81
2023-12-10T09:00:12.003Z,100066.38
2023-12-10T09:05:15.152Z,100060.68
2023-12-10T09:10:18.344Z,100058.52
2023-12-10T09:15:21.407Z,100069.27
2023-12-10T09:20:24.519Z,100084.74
2023-12-10T09:25:27.578Z,100080.05
2023-12-10T09:30:30.713Z,100069.98
2023-12-10T09:35:33.802Z,100068.56
2023-12-10T09:40:36.810Z,100064.44
2023-12-10T09:45:39.957Z,100054.91
2023-12-10T09:50:43.472Z,100067.59
2023-12-10T09:55:47.173Z,100067.23
2023-12-10T10:00:52.311Z,100062.93
2023-12-10T10:05:55.674Z,100064.69
2023-12-10T10:10:59.105Z,100070.12
2023-12-10T10:16:11.626Z,100061.79
2023-12-10T10:21:14.581Z,100056.71
2023-12-10T10:26:19.096Z,100063.48
2023-12-10T10:31:22.186Z,100064.84
2023-12-10T10:36:25.398Z,100054.45
2023-12-10T10:41:28.511Z,100042.41
2023-12-10T10:46:33.779Z,100043.50
2023-12-10T10:51:36.890Z,100037.21
2023-12-10T10:56:40.003Z,100025.95
2023-12-10T11:01:43.802Z,100027.55
2023-12-10T11:06:47.503Z,100034.96
2023-12-10T11:11:51.156Z,100033.61
2023-12-10T11:16:57.199Z,100035.87
2023-12-10T11:22:00.814Z,100041.02
2023-12-10T11:27:04.129Z,100040.01
2023-12-10T11:32:07.235Z,100040.42
2023-12-10T11:37:10.383Z,100039.61
2023-12-10T11:42:13.348Z,100050.44
2023-12-10T11:47:16.357Z,100052.82
2023-12-10T11:52:19.592Z,100055.76
2023-12-10T11:57:23.152Z,100057.70
2023-12-10T12:02:26.253Z,100061.01
2023-12-10T12:07:30.030Z,100057.70
2023-12-10T12:12:38.319Z,100059.48
2023-12-10T12:17:42.429Z,100062.29
2023-12-10T12:22:49.636Z,100065.57
2023-12-10T12:27:53.129Z,100056.17
2023-12-10T12:32:56.461Z,100056.05
2023-12-10T12:37:59.754Z,100049.78
2023-12-10T12:43:02.950Z,100044.69
2023-12-10T12:48:06.503Z,100039.00
2023-12-10T12:53:12.644Z,100032.30
2023-12-10T12:58:15.822Z,100036.08
2023-12-10T13:03:19.207Z,100040.45
2023-12-10T13:08:22.537Z,100045.36
2023-12-10T13:13:25.501Z,100051.64
2023-12-10T13:18:28.713Z,100048.84
2023-12-10T13:23:32.257Z,100046.23
2023-12-10T13:28:35.503Z,100053.64
2023-12-10T13:33:39.981Z,100062.08
2023-12-10T13:38:43.104Z,100063.09
2023-12-10T13:43:46.176Z,100069.63
2023-12-10T13:48:49.835Z,100077.65
2023-12-10T13:53:53.287Z,100068.77
2023-12-10T13:58:56.824Z,100068.70
2023-12-10T14:04:00.503Z,100066.52
2023-12-10T14:09:05.864Z,100071.50
2023-12-10T14:14:11.167Z,100074.40
2023-12-10T14:19:15.518Z,100076.27
2023-12-10T14:24:18.673Z,100072.09
2023-12-10T14:29:21.646Z,100065.10
2023-12-10T14:34:24.876Z,100068.81
2023-12-10T14:39:28.000Z,100070.99
2023-12-10T14:44:31.084Z,100066.84
2023-12-10T14:49:34.056Z,100073.06
2023-12-10T14:54:37.033Z,100071.98
2023-12-10T14:59:40.691Z,100072.52
2023-12-10T15:04:43.605Z,100075.82
2023-12-10T15:09:47.700Z,100089.66
2023-12-10T15:14:50.979Z,100097.94
2023-12-10T15:19:54.179Z,100104.80
2023-12-10T15:24:57.294Z,100100.08
2023-12-10T15:30:00.362Z,100099.37
2023-12-10T15:35:04.347Z,100103.00
2023-12-10T15:40:08.156Z,100086.88
2023-12-10T15:45:14.530Z,100082.91
2023-12-10T15:50:17.640Z,100083.02
2023-12-10T15:55:20.912Z,100094.00
2023-12-10T16:00:24.171Z,100076.41
2023-12-10T16:05:27.240Z,100089.51
2023-12-10T16:10:30.297Z,100086.70
2023-12-10T16:15:33.230Z,100086.16
2023-12-10T16:20:36.163Z,100084.77
2023-12-10T16:25:39.136Z,100079.52
2023-12-10T16:30:43.087Z,100066.48
2023-12-10T16:35:46.214Z,100072.64
2023-12-10T16:40:49.481Z,100075.30
2023-12-10T16:45:52.575Z,100077.58
2023-12-10T16:50:55.844Z,100076.65
2023-12-10T16:55:59.002Z,100073.86
2023-12-10T17:01:03.366Z,100076.04
2023-12-10T17:06:08.490Z,100071.11
2023-12-10T17:11:11.922Z,100065.75
2023-12-10T17:16:14.854Z,100058.61
2023-12-10T17:21:18.007Z,100055.27
2023-12-10T17:26:21.050Z,100054.20
2023-12-10T17:31:23.992Z,100057.03
2023-12-10T17:36:27.022Z,100058.40
2023-12-10T17:41:30.092Z,100056.14
2023-12-10T17:46:33.156Z,100053.45
2023-12-10T17:51:36.266Z,100048.69
2023-12-10T17:56:39.403Z,100036.46
2023-12-10T18:01:42.829Z,100022.30
2023-12-10T18:06:47.612Z,100016.72
2023-12-10T18:11:50.649Z,100016.77
2023-12-10T18:16:53.661Z,100009.14
2023-12-10T18:21:56.673Z,100011.05
2023-12-10T18:26:59.670Z,100012.24
2023-12-10T18:32:05.052Z,100004.41
2023-12-10T18:37:08.092Z,100003.98
2023-12-10T18:42:11.749Z,100011.85
2023-12-10T18:47:15.158Z,100004.23
2023-12-10T18:52:18.098Z,99998.86
2023-12-10T18:57:21.285Z,99998.70
2023-12-10T19:02:25.050Z,99994.17
2023-12-10T19:07:28.462Z,99977.77
2023-12-10T19:12:34.175Z,99973.86
2023-12-10T19:17:37.545Z,99971.74
2023-12-10T19:22:40.761Z,99961.80
2023-12-10T19:27:46.273Z,99950.05
2023-12-10T19:32:50.926Z,99942.70
2023-12-10T19:37:53.968Z,99946.11
2023-12-10T19:42:57.542Z,99946.06
2023-12-10T19:48:00.877Z,99938.86
2023-12-10T19:53:04.057Z,99930.38
2023-12-10T19:58:07.280Z,99931.85
2023-12-10T20:03:10.204Z,99928.17
2023-12-10T20:08:14.168Z,99921.95
2023-12-10T20:13:17.313Z,99920.75
2023-12-10T20:18:20.746Z,99920.30
2023-12-10T20:23:24.786Z,99922.27
2023-12-10T20:28:27.744Z,99916.41
2023-12-10T20:33:30.840Z,99907.44
2023-12-10T20:38:34.011Z,99901.66
2023-12-10T20:43:37.021Z,99900.48
2023-12-10T20:48:40.168Z,99896.81
2023-12-10T20:53:43.405Z,99889.93
2023-12-10T20:58:46.457Z,99882.14
2023-12-10T21:03:49.379Z,99880.63
2023-12-10T21:08:52.604Z,99875.92
2023-12-10T21:13:55.606Z,99874.73
2023-12-10T21:19:01.203Z,99862.49
2023-12-10T21:24:04.357Z,99853.27
2023-12-10T21:29:07.361Z,99852.01
2023-12-10T21:34:10.607Z,99852.73
2023-12-10T21:39:14.384Z,99855.86
2023-12-10T21:44:17.422Z,99849.85
2023-12-10T21:49:20.448Z,99835.39
2023-12-10T21:54:26.232Z,99829.95
2023-12-10T21:59:29.297Z,99825.98
2023-12-10T22:04:32.424Z,99824.95
2023-12-10T22:09:35.553Z,99816.55
2023-12-10T22:14:38.622Z,99807.33
2023-12-10T22:19:41.662Z,99794.91
2023-12-10T22:24:44.932Z,99784.08
2023-12-10T22:29:51.639Z,99774.31
2023-12-10T22:34:54.622Z,99775.64
2023-12-10T22:39:57.803Z,99763.21
2023-12-10T22:45:00.842Z,99757.91
2023-12-10T22:50:04.476Z,99748.69
2023-12-10T22:55:09.840Z,99738.65
2023-12-10T23:00:18.471Z,99732.36
2023-12-10T23:05:21.895Z,99732.52
2023-12-10T23:10:24.887Z,99726.98
2023-12-10T23:15:29.714Z,99719.94
2023-12-10T23:20:32.733Z,99722.11
2023-12-10T23:25:36.020Z,99725.41
2023-12-10T23:30:45.038Z,99712.71
2023-12-10T23:35:48.665Z,99709.09
2023-12-10T23:40:51.756Z,99704.48
2023-12-10T23:45:55.035Z,99712.27
2023-12-10T23:50:58.079Z,99704.05
2023-12-10T23:56:02.872Z,99698.01
